Time;durP1;ratioP1;P1;durP2;ratioP2;P2;SDS_P1;SDS_P2;PMS_P1;PMS_P2;Temp;Humidity;BMP_temperature;BMP_pressure;BME280_temperature;BME280_humidity;BME280_pressure;Samples;Min_cycle;Max_cycle;Signal;HPM_P1;HPM_P2
2023/09/20 00:00:33;;;;;;;5.45;1.92;;;18.80;99.90;;;;;;4972085;28;20041;-71
2023/09/20 00:02:59;;;;;;;7.68;2.10;;;18.80;99.90;;;;;;4954725;28;20404;-71
2023/09/20 00:05:25;;;;;;;5.90;2.17;;;18.80;99.90;;;;;;4972146;28;20026;-71
2023/09/20 00:07:54;;;;;;;5.85;2.03;;;18.90;99.90;;;;;;4971688;28;20034;-71
2023/09/20 00:10:21;;;;;;;5.82;2.35;;;18.90;99.90;;;;;;4971648;28;20162;-71
2023/09/20 00:12:47;;;;;;;5.03;1.95;;;18.90;99.90;;;;;;4970433;28;20116;-71
2023/09/20 00:15:13;;;;;;;7.43;2.30;;;18.90;99.90;;;;;;4971927;28;20015;-72
2023/09/20 00:17:38;;;;;;;5.18;2.15;;;18.80;99.90;;;;;;4970370;28;20037;-71
2023/09/20 00:20:12;;;;;;;5.10;1.80;;;18.90;99.90;;;;;;4971694;28;20117;-71
2023/09/20 00:22:40;;;;;;;4.53;1.95;;;18.90;99.90;;;;;;4971327;28;20034;-71
2023/09/20 00:25:07;;;;;;;7.15;2.38;;;18.90;99.90;;;;;;4954668;28;20035;-71
2023/09/20 00:27:34;;;;;;;6.10;1.90;;;18.90;99.90;;;;;;4971326;28;20037;-71
2023/09/20 00:30:00;;;;;;;6.97;2.08;;;18.90;99.90;;;;;;4971757;28;20034;-72
2023/09/20 00:32:25;;;;;;;6.47;1.90;;;18.90;99.90;;;;;;4971364;28;20034;-71
2023/09/20 00:34:51;;;;;;;5.55;2.03;;;18.90;99.90;;;;;;4971820;28;20023;-71
2023/09/20 00:37:16;;;;;;;6.00;2.10;;;18.90;99.90;;;;;;4971400;28;20374;-71
2023/09/20 00:39:42;;;;;;;6.68;1.83;;;18.90;99.90;;;;;;4971090;28;20076;-71
2023/09/20 00:42:08;;;;;;;9.23;2.15;;;18.90;99.90;;;;;;4971436;28;20030;-71
2023/09/20 00:44:35;;;;;;;8.23;2.13;;;18.90;99.90;;;;;;4971242;28;20030;-71
2023/09/20 00:47:03;;;;;;;6.35;2.40;;;18.90;99.90;;;;;;4971498;28;20405;-71
2023/09/20 00:49:29;;;;;;;8.32;2.45;;;18.90;99.90;;;;;;4970937;28;20027;-70
2023/09/20 00:51:56;;;;;;;7.63;2.20;;;18.90;99.90;;;;;;4971527;28;20441;-71
2023/09/20 00:54:22;;;;;;;6.60;2.00;;;18.90;99.90;;;;;;4970663;28;20557;-72
2023/09/20 00:56:49;;;;;;;8.82;2.40;;;18.90;99.90;;;;;;4953893;28;20019;-71
2023/09/20 00:59:16;;;;;;;4.80;2.30;;;18.90;99.90;;;;;;4971100;28;20045;-71
2023/09/20 01:01:42;;;;;;;10.07;2.00;;;18.90;99.90;;;;;;4971276;28;20018;-71
2023/09/20 01:04:08;;;;;;;8.70;2.17;;;18.90;99.90;;;;;;4953536;28;20033;-71
2023/09/20 01:06:36;;;;;;;5.97;2.15;;;18.90;99.90;;;;;;4970789;28;20019;-71
2023/09/20 01:09:03;;;;;;;6.45;2.10;;;18.80;99.90;;;;;;4953290;28;20042;-71
2023/09/20 01:11:29;;;;;;;6.50;2.00;;;18.80;99.90;;;;;;4970656;28;20061;-71
2023/09/20 01:13:56;;;;;;;7.57;2.55;;;18.80;99.90;;;;;;4970711;28;20568;-71
2023/09/20 01:16:21;;;;;;;8.15;2.08;;;18.80;99.90;;;;;;4970952;28;20482;-71
2023/09/20 01:18:48;;;;;;;6.68;2.03;;;18.70;99.90;;;;;;4970481;28;20038;-71
2023/09/20 01:21:14;;;;;;;6.60;1.90;;;18.70;99.90;;;;;;4970984;28;20019;-69
2023/09/20 01:23:43;;;;;;;6.63;2.92;;;18.70;99.90;;;;;;4970295;28;20093;-69
2023/09/20 01:26:11;;;;;;;8.13;2.13;;;18.60;99.90;;;;;;4970633;28;20022;-71
2023/09/20 01:28:37;;;;;;;5.82;2.22;;;18.60;99.90;;;;;;4968648;28;20030;-69
2023/09/20 01:31:05;;;;;;;6.60;1.90;;;18.50;99.90;;;;;;4970642;28;20037;-70
2023/09/20 01:33:31;;;;;;;11.77;2.33;;;18.50;99.90;;;;;;4970170;28;20051;-69
2023/09/20 01:35:58;;;;;;;7.03;1.88;;;18.50;99.90;;;;;;4970546;28;20031;-71
2023/09/20 01:38:25;;;;;;;5.43;2.05;;;18.50;99.90;;;;;;4969858;28;20034;-71
2023/09/20 01:40:55;;;;;;;8.70;2.30;;;18.40;99.90;;;;;;4970073;28;20054;-69
2023/09/20 01:43:22;;;;;;;6.13;1.80;;;18.40;99.90;;;;;;4970035;28;20023;-69
2023/09/20 01:45:47;;;;;;;6.40;2.15;;;18.30;99.90;;;;;;4970453;28;20050;-69
2023/09/20 01:48:13;;;;;;;6.13;1.95;;;18.30;99.90;;;;;;4969935;28;20073;-70
2023/09/20 01:50:41;;;;;;;6.07;2.20;;;18.30;99.90;;;;;;4969978;28;20058;-70
2023/09/20 01:53:10;;;;;;;7.43;2.40;;;18.30;99.90;;;;;;4969825;28;20043;-69
2023/09/20 01:55:42;;;;;;;6.93;2.00;;;18.20;99.90;;;;;;4968954;28;20042;-70
2023/09/20 01:58:07;;;;;;;6.28;2.05;;;18.20;99.90;;;;;;4969861;28;20098;-69
2023/09/20 02:00:37;;;;;;;7.93;2.35;;;18.20;99.90;;;;;;4970147;28;20031;-70
2023/09/20 02:03:08;;;;;;;4.70;1.83;;;18.10;99.90;;;;;;4969805;28;20022;-70
2023/09/20 02:05:36;;;;;;;7.97;1.98;;;18.10;99.90;;;;;;4968705;28;20030;-70
2023/09/20 02:08:02;;;;;;;4.63;1.80;;;18.10;99.90;;;;;;4952201;28;20023;-70
2023/09/20 02:10:28;;;;;;;7.35;2.47;;;18.10;99.90;;;;;;4969735;28;20027;-69
2023/09/20 02:12:56;;;;;;;7.50;2.15;;;18.00;99.90;;;;;;4969802;28;20025;-70
2023/09/20 02:15:27;;;;;;;6.22;2.08;;;18.00;99.90;;;;;;4969530;28;20053;-70
2023/09/20 02:17:53;;;;;;;6.10;2.35;;;18.00;99.90;;;;;;4969606;28;20041;-70
2023/09/20 02:20:20;;;;;;;6.20;2.20;;;18.00;99.90;;;;;;4969504;28;20026;-70
2023/09/20 02:22:54;;;;;;;6.68;2.08;;;18.00;99.90;;;;;;4969478;28;20027;-70
2023/09/20 02:25:20;;;;;;;9.15;2.42;;;18.00;99.90;;;;;;4968325;28;20477;-70
2023/09/20 02:27:47;;;;;;;7.85;2.28;;;17.90;99.90;;;;;;4969481;28;20030;-70
2023/09/20 02:30:19;;;;;;;9.07;2.10;;;18.00;99.90;;;;;;4969565;28;20027;-70
2023/09/20 02:32:50;;;;;;;7.78;2.08;;;17.90;99.90;;;;;;4951973;28;20023;-70
2023/09/20 02:35:16;;;;;;;5.30;1.95;;;17.80;99.90;;;;;;4952059;28;20576;-69
2023/09/20 02:37:43;;;;;;;6.55;2.30;;;17.80;99.90;;;;;;4951784;28;20061;-70
2023/09/20 02:40:17;;;;;;;5.90;2.35;;;17.80;99.90;;;;;;4968683;28;20510;-70
2023/09/20 02:42:54;;;;;;;6.63;2.15;;;17.80;99.90;;;;;;4969345;28;20066;-70
2023/09/20 02:45:20;;;;;;;6.05;1.90;;;17.70;99.90;;;;;;4966437;28;20034;-70
2023/09/20 02:47:47;;;;;;;8.13;2.25;;;17.70;99.90;;;;;;4950230;29;20082;-70
2023/09/20 02:50:16;;;;;;;7.18;1.80;;;17.70;99.90;;;;;;4948657;29;20059;-69
2023/09/20 02:52:44;;;;;;;5.97;2.00;;;17.70;99.90;;;;;;4949867;29;20052;-70
2023/09/20 02:55:12;;;;;;;4.72;1.88;;;17.60;99.90;;;;;;4950004;29;20020;-70
2023/09/20 02:57:39;;;;;;;6.25;2.00;;;17.60;99.90;;;;;;4949846;29;20046;-69
2023/09/20 03:00:18;;;;;;;5.45;2.08;;;17.60;99.90;;;;;;4949754;29;20095;-70
2023/09/20 03:02:57;;;;;;;6.80;2.00;;;17.50;99.90;;;;;;4948581;29;20034;-69
2023/09/20 03:05:28;;;;;;;8.75;2.33;;;17.50;99.90;;;;;;4949814;29;20110;-70
2023/09/20 03:07:55;;;;;;;7.20;2.30;;;17.50;99.90;;;;;;4949850;29;20057;-70
2023/09/20 03:10:22;;;;;;;5.90;1.88;;;17.50;99.90;;;;;;4932223;28;20028;-70
2023/09/20 03:12:51;;;;;;;6.03;2.35;;;17.50;99.90;;;;;;4949633;29;20094;-69
2023/09/20 03:15:21;;;;;;;8.43;2.30;;;17.50;99.90;;;;;;4949824;29;20028;-70
2023/09/20 03:17:47;;;;;;;6.03;1.85;;;17.40;99.90;;;;;;4949855;29;20019;-70
2023/09/20 03:20:24;;;;;;;4.68;1.92;;;17.40;99.90;;;;;;4949753;29;20038;-70
2023/09/20 03:22:51;;;;;;;6.68;2.00;;;17.40;99.90;;;;;;4949584;29;20035;-69
2023/09/20 03:25:19;;;;;;;5.60;1.80;;;17.40;99.90;;;;;;4948173;29;20035;-70
2023/09/20 03:27:46;;;;;;;6.45;2.45;;;17.40;99.90;;;;;;4949703;29;20058;-70
2023/09/20 03:30:22;;;;;;;3.60;1.60;;;17.40;99.90;;;;;;4949553;29;20023;-70
2023/09/20 03:32:49;;;;;;;5.30;1.95;;;17.50;99.90;;;;;;4949536;29;20500;-70
2023/09/20 03:35:16;;;;;;;4.32;1.90;;;17.40;99.90;;;;;;4932435;29;20077;-70
2023/09/20 03:37:44;;;;;;;6.20;2.50;;;17.40;99.90;;;;;;4948025;29;20204;-70
2023/09/20 03:40:15;;;;;;;5.63;1.88;;;17.40;99.90;;;;;;4949308;29;20589;-70
2023/09/20 03:42:41;;;;;;;6.55;2.35;;;17.40;99.90;;;;;;4948259;29;20031;-70
2023/09/20 03:45:11;;;;;;;7.35;2.40;;;17.40;99.90;;;;;;4948813;29;20038;-70
2023/09/20 03:47:41;;;;;;;6.97;2.22;;;17.40;99.90;;;;;;4949159;29;20038;-70
2023/09/20 03:50:07;;;;;;;9.20;2.20;;;17.50;99.90;;;;;;4948585;28;20045;-70
2023/09/20 03:52:33;;;;;;;8.25;2.40;;;17.50;99.90;;;;;;4952503;28;20023;-70
2023/09/20 03:54:59;;;;;;;9.65;2.47;;;17.50;99.90;;;;;;4953050;28;20030;-70
2023/09/20 03:57:25;;;;;;;4.97;2.00;;;17.50;99.90;;;;;;4953282;29;20479;-70
2023/09/20 03:59:54;;;;;;;4.40;1.85;;;17.50;99.90;;;;;;4952818;29;20027;-70
2023/09/20 04:02:23;;;;;;;6.13;2.17;;;17.50;99.90;;;;;;4953021;29;20667;-70
2023/09/20 04:04:52;;;;;;;6.07;1.90;;;17.50;99.90;;;;;;4952549;29;20034;-69
2023/09/20 04:07:23;;;;;;;6.60;2.05;;;17.50;99.90;;;;;;4951921;28;20031;-70
2023/09/20 04:09:49;;;;;;;6.47;1.90;;;17.50;99.90;;;;;;4936731;29;20118;-70
2023/09/20 04:12:15;;;;;;;5.47;2.22;;;17.50;99.90;;;;;;4956424;29;20146;-70
2023/09/20 04:14:43;;;;;;;5.28;1.77;;;17.50;99.90;;;;;;4955531;29;20098;-70
2023/09/20 04:17:09;;;;;;;4.32;1.73;;;17.50;99.90;;;;;;4939301;29;20031;-70
2023/09/20 04:19:39;;;;;;;5.78;2.15;;;17.50;99.90;;;;;;4954646;29;20031;-70
2023/09/20 04:22:06;;;;;;;7.45;2.20;;;17.60;99.90;;;;;;4946375;29;20118;-70
2023/09/20 04:24:33;;;;;;;6.15;2.28;;;17.60;99.90;;;;;;4955757;29;20027;-70
2023/09/20 04:26:59;;;;;;;6.75;2.45;;;17.60;99.90;;;;;;4955620;29;20086;-70
2023/09/20 04:29:26;;;;;;;7.50;2.60;;;17.60;99.90;;;;;;4955075;29;20057;-70
2023/09/20 04:31:52;;;;;;;6.93;2.15;;;17.60;99.90;;;;;;4954823;29;20030;-71
2023/09/20 04:34:21;;;;;;;5.43;2.00;;;17.60;99.90;;;;;;4954718;29;20045;-71
2023/09/20 04:36:47;;;;;;;4.80;1.98;;;17.60;99.90;;;;;;4938992;29;20486;-71
2023/09/20 04:39:16;;;;;;;8.85;2.35;;;17.60;99.90;;;;;;4937093;29;20034;-71
2023/09/20 04:41:43;;;;;;;5.93;2.35;;;17.50;99.90;;;;;;4938790;29;20035;-71
2023/09/20 04:44:08;;;;;;;6.13;1.98;;;17.50;99.90;;;;;;4955506;29;20477;-71
2023/09/20 04:46:38;;;;;;;11.65;3.05;;;17.50;99.90;;;;;;4956121;29;20033;-71
2023/09/20 04:49:05;;;;;;;6.80;2.40;;;17.50;99.90;;;;;;4938214;29;20027;-71
2023/09/20 04:51:33;;;;;;;5.05;2.20;;;17.50;99.90;;;;;;4956184;29;20031;-71
2023/09/20 04:53:59;;;;;;;7.60;2.30;;;17.50;99.90;;;;;;4955367;29;20031;-71
2023/09/20 04:56:27;;;;;;;7.30;2.25;;;17.40;99.90;;;;;;4956142;29;20023;-71
2023/09/20 04:58:53;;;;;;;5.93;2.20;;;17.40;99.90;;;;;;4955347;29;20375;-71
2023/09/20 05:01:18;;;;;;;4.80;2.08;;;17.40;99.90;;;;;;4938583;29;20053;-71
2023/09/20 05:03:44;;;;;;;5.50;2.00;;;17.30;99.90;;;;;;4954679;28;20497;-71
2023/09/20 05:06:10;;;;;;;5.57;2.03;;;17.30;99.90;;;;;;4955836;29;20042;-71
2023/09/20 05:08:36;;;;;;;8.15;2.50;;;17.30;99.90;;;;;;4954985;28;20038;-71
2023/09/20 05:11:04;;;;;;;7.32;2.28;;;17.30;99.90;;;;;;4955695;29;20423;-71
2023/09/20 05:13:30;;;;;;;7.90;2.47;;;17.20;99.90;;;;;;4955227;29;20089;-71
2023/09/20 05:15:55;;;;;;;6.38;2.08;;;17.20;99.90;;;;;;4955336;29;20024;-71
2023/09/20 05:18:21;;;;;;;6.65;2.25;;;17.20;99.90;;;;;;4955216;29;20042;-72
2023/09/20 05:20:47;;;;;;;7.55;2.38;;;17.20;99.90;;;;;;4955313;29;20031;-71
2023/09/20 05:23:13;;;;;;;7.65;2.30;;;17.20;99.90;;;;;;4955284;29;20478;-71
2023/09/20 05:25:39;;;;;;;8.93;2.70;;;17.20;99.90;;;;;;4955361;29;20054;-71
2023/09/20 05:28:05;;;;;;;6.25;2.10;;;17.20;99.90;;;;;;4955352;29;20064;-72
2023/09/20 05:30:32;;;;;;;6.03;2.50;;;17.20;99.90;;;;;;4954795;29;20370;-71
2023/09/20 05:32:58;;;;;;;5.63;2.13;;;17.20;99.90;;;;;;4955556;29;20087;-71
2023/09/20 05:35:27;;;;;;;6.45;2.20;;;17.20;99.90;;;;;;4954689;29;20022;-71
2023/09/20 05:37:53;;;;;;;6.55;2.38;;;17.10;99.90;;;;;;4955313;29;20418;-71
2023/09/20 05:40:19;;;;;;;7.85;2.38;;;17.10;99.90;;;;;;4954389;29;20071;-71
2023/09/20 05:42:44;;;;;;;10.52;2.75;;;17.10;99.90;;;;;;4955135;29;20043;-71
2023/09/20 05:45:10;;;;;;;6.45;2.42;;;17.10;99.90;;;;;;4954339;29;20489;-71
2023/09/20 05:47:36;;;;;;;5.32;2.15;;;17.10;99.90;;;;;;4937795;29;20338;-71
2023/09/20 05:50:02;;;;;;;5.03;2.15;;;17.10;99.90;;;;;;4937196;29;20077;-71
2023/09/20 05:52:28;;;;;;;6.70;2.20;;;17.10;99.90;;;;;;4954986;29;20019;-71
2023/09/20 05:54:55;;;;;;;9.20;2.78;;;17.10;99.90;;;;;;4954262;29;20111;-71
2023/09/20 05:57:22;;;;;;;9.20;2.28;;;17.10;99.90;;;;;;4954980;29;20031;-72
2023/09/20 05:59:48;;;;;;;9.13;3.10;;;17.10;99.90;;;;;;4954133;29;20027;-72
2023/09/20 06:02:14;;;;;;;7.93;2.40;;;17.10;99.90;;;;;;4954817;29;20459;-72
2023/09/20 06:04:40;;;;;;;8.25;2.30;;;17.10;99.90;;;;;;4954279;29;20283;-70
2023/09/20 06:07:05;;;;;;;8.73;2.42;;;17.20;99.90;;;;;;4954809;28;20371;-72
2023/09/20 06:09:32;;;;;;;6.65;2.35;;;17.20;99.90;;;;;;4953973;29;20118;-72
2023/09/20 06:11:58;;;;;;;7.60;2.25;;;17.20;99.90;;;;;;4954639;29;20023;-72
2023/09/20 06:14:24;;;;;;;5.28;2.00;;;17.20;99.90;;;;;;4953323;28;20027;-70
2023/09/20 06:16:51;;;;;;;7.50;2.20;;;17.30;99.90;;;;;;4937195;29;20402;-70
2023/09/20 06:19:17;;;;;;;7.60;2.33;;;17.30;99.90;;;;;;4953877;29;20019;-70
2023/09/20 06:21:43;;;;;;;8.07;2.40;;;17.30;99.90;;;;;;4954454;29;20037;-70
2023/09/20 06:24:11;;;;;;;5.65;2.10;;;17.40;99.90;;;;;;4953643;29;20024;-70
2023/09/20 06:26:40;;;;;;;5.10;2.10;;;17.40;99.90;;;;;;4954364;29;20564;-70
2023/09/20 06:29:06;;;;;;;7.43;2.47;;;17.40;99.90;;;;;;4953561;29;20611;-70
2023/09/20 06:31:32;;;;;;;8.60;2.30;;;17.50;99.90;;;;;;4954478;29;20267;-70
2023/09/20 06:33:58;;;;;;;7.03;2.58;;;17.50;99.90;;;;;;4953725;29;20771;-70
2023/09/20 06:36:24;;;;;;;6.40;2.08;;;17.60;99.90;;;;;;4954270;29;20024;-70
2023/09/20 06:38:49;;;;;;;6.53;2.40;;;17.60;99.90;;;;;;4953660;29;20102;-70
2023/09/20 06:41:15;;;;;;;6.70;2.25;;;17.60;99.90;;;;;;4953930;29;20501;-70
2023/09/20 06:43:42;;;;;;;6.15;2.10;;;17.70;99.90;;;;;;4953593;29;20473;-70
2023/09/20 06:46:08;;;;;;;6.95;2.22;;;17.60;99.90;;;;;;4953849;29;20027;-70
2023/09/20 06:48:34;;;;;;;6.65;2.30;;;17.70;99.90;;;;;;4953347;29;20110;-70
2023/09/20 06:51:00;;;;;;;5.15;2.00;;;17.70;99.90;;;;;;4953749;29;20127;-70
2023/09/20 06:53:26;;;;;;;5.70;2.20;;;17.70;99.90;;;;;;4936551;29;20051;-70
2023/09/20 06:55:52;;;;;;;9.50;2.50;;;17.80;99.90;;;;;;4953449;29;20065;-70
2023/09/20 06:58:21;;;;;;;5.28;2.05;;;17.80;99.90;;;;;;4953897;29;20054;-70
2023/09/20 07:00:47;;;;;;;9.68;2.63;;;17.90;99.90;;;;;;4936255;29;20019;-70
2023/09/20 07:03:12;;;;;;;5.47;2.40;;;17.90;99.90;;;;;;4953854;29;20074;-70
2023/09/20 07:05:38;;;;;;;5.20;1.60;;;18.00;99.90;;;;;;4953141;29;20490;-70
2023/09/20 07:08:05;;;;;;;7.45;2.13;;;18.00;99.90;;;;;;4936538;29;20030;-71
2023/09/20 07:10:33;;;;;;;4.53;2.35;;;18.00;99.90;;;;;;4935821;29;20047;-70
2023/09/20 07:13:00;;;;;;;4.63;2.20;;;18.00;99.90;;;;;;4953673;29;20027;-70
2023/09/20 07:15:28;;;;;;;9.75;2.25;;;18.00;99.90;;;;;;4953210;29;20047;-70
2023/09/20 07:18:00;;;;;;;5.30;2.05;;;18.10;99.90;;;;;;4953942;29;20478;-70
2023/09/20 07:20:29;;;;;;;8.68;2.50;;;18.10;99.90;;;;;;4953097;29;20033;-70
2023/09/20 07:22:54;;;;;;;6.75;2.10;;;18.20;99.90;;;;;;4953474;29;20031;-70
2023/09/20 07:25:21;;;;;;;4.10;1.80;;;18.20;99.90;;;;;;4952986;28;20504;-70
2023/09/20 07:27:55;;;;;;;6.22;2.30;;;18.30;99.90;;;;;;4957519;29;20043;-70
2023/09/20 07:30:22;;;;;;;6.63;2.05;;;18.40;99.90;;;;;;4956767;29;20110;-70
2023/09/20 07:32:50;;;;;;;5.32;2.00;;;18.40;99.90;;;;;;4957483;29;20020;-70
2023/09/20 07:35:25;;;;;;;4.38;1.98;;;18.40;99.90;;;;;;4939571;29;20036;-70
2023/09/20 07:37:58;;;;;;;5.03;2.15;;;18.50;99.90;;;;;;4957343;29;20043;-71
2023/09/20 07:40:33;;;;;;;3.85;1.83;;;18.50;99.90;;;;;;4956501;29;20134;-70
2023/09/20 07:43:07;;;;;;;6.45;2.13;;;18.50;99.90;;;;;;4955951;29;20490;-70
2023/09/20 07:45:38;;;;;;;6.78;2.13;;;18.50;99.90;;;;;;4956669;29;20019;-70
2023/09/20 07:48:16;;;;;;;4.15;1.75;;;18.50;99.90;;;;;;4957168;29;20159;-70
2023/09/20 07:50:50;;;;;;;5.78;2.05;;;18.50;99.90;;;;;;4956339;29;20031;-70
2023/09/20 07:53:20;;;;;;;6.65;1.98;;;18.60;99.90;;;;;;4957253;29;20030;-70
2023/09/20 07:56:06;;;;;;;5.88;1.98;;;18.60;99.90;;;;;;4956592;29;20400;-70
2023/09/20 07:58:35;;;;;;;6.45;2.10;;;18.60;99.90;;;;;;4956972;29;20023;-70
2023/09/20 08:01:12;;;;;;;5.25;1.90;;;18.60;99.90;;;;;;4956505;29;20034;-70
2023/09/20 08:03:53;;;;;;;5.35;2.00;;;18.70;99.90;;;;;;4956732;29;20394;-70
2023/09/20 08:06:28;;;;;;;6.63;2.28;;;18.70;99.90;;;;;;4956626;29;20031;-70
2023/09/20 08:08:55;;;;;;;5.45;1.90;;;18.80;99.90;;;;;;4955025;28;20122;-70
2023/09/20 08:11:22;;;;;;;6.88;1.90;;;18.80;99.90;;;;;;4956548;29;20024;-70
2023/09/20 08:13:49;;;;;;;5.43;2.08;;;18.80;99.90;;;;;;4939256;29;20042;-71
2023/09/20 08:16:15;;;;;;;3.55;1.55;;;19.00;99.90;;;;;;4956725;29;20148;-71
2023/09/20 08:21:26;;;;;;;6.65;2.10;;;19.10;99.90;;;;;;4956687;29;20121;-70
2023/09/20 08:59:55;;;;;;;6.45;2.03;;;19.50;99.90;;;;;;4955514;29;20090;-70
2023/09/20 09:02:22;;;;;;;5.05;1.98;;;19.50;99.90;;;;;;4955842;29;20019;-70
2023/09/20 09:04:54;;;;;;;5.75;1.70;;;19.50;99.90;;;;;;4955285;29;20099;-70
2023/09/20 09:07:22;;;;;;;5.10;1.70;;;19.50;99.90;;;;;;4955732;28;20019;-70
2023/09/20 09:09:49;;;;;;;5.00;1.60;;;19.50;99.90;;;;;;4955042;29;20027;-70
2023/09/20 09:12:16;;;;;;;5.47;1.60;;;19.50;99.90;;;;;;4955746;29;20034;-70
2023/09/20 09:14:42;;;;;;;3.38;1.70;;;19.50;99.90;;;;;;4955051;29;20035;-70
2023/09/20 09:17:09;;;;;;;6.15;1.83;;;19.60;99.90;;;;;;4955681;29;20442;-70
2023/09/20 09:19:36;;;;;;;4.32;1.60;;;19.60;99.90;;;;;;4954814;29;20082;-71
2023/09/20 09:22:02;;;;;;;3.45;1.80;;;19.70;99.90;;;;;;4955473;29;20106;-70
2023/09/20 09:24:41;;;;;;;3.75;1.90;;;19.70;99.90;;;;;;4954751;29;20027;-71
2023/09/20 09:27:08;;;;;;;5.00;1.50;;;19.70;99.90;;;;;;4938544;29;20110;-71
2023/09/20 09:29:35;;;;;;;3.08;1.70;;;19.80;99.90;;;;;;4953388;29;20075;-71
2023/09/20 09:32:02;;;;;;;4.65;1.65;;;19.80;99.90;;;;;;4954059;29;20032;-70
2023/09/20 09:34:28;;;;;;;5.40;2.15;;;19.90;99.90;;;;;;4954670;29;20023;-70
2023/09/20 09:36:54;;;;;;;6.20;2.20;;;19.90;99.90;;;;;;4955209;29;20437;-70
2023/09/20 09:39:20;;;;;;;6.25;2.50;;;19.90;99.90;;;;;;4954526;29;20441;-70
2023/09/20 09:41:46;;;;;;;4.10;1.85;;;19.90;99.90;;;;;;4937693;29;20027;-70
2023/09/20 09:44:13;;;;;;;5.40;2.45;;;20.00;99.90;;;;;;4954612;29;20079;-70
2023/09/20 09:46:43;;;;;;;6.07;2.63;;;20.00;99.90;;;;;;4954829;29;20102;-70
2023/09/20 09:49:11;;;;;;;4.75;2.10;;;20.10;99.90;;;;;;4937213;29;20453;-71
2023/09/20 09:51:45;;;;;;;7.90;2.53;;;20.10;99.90;;;;;;4954748;29;20050;-71
2023/09/20 09:54:15;;;;;;;6.07;2.20;;;20.10;99.90;;;;;;4937176;29;20409;-70
2023/09/20 09:56:41;;;;;;;4.78;2.10;;;20.20;99.90;;;;;;4954608;29;20019;-70
2023/09/20 09:59:07;;;;;;;4.20;2.33;;;20.20;99.90;;;;;;4954586;29;20033;-71
2023/09/20 10:01:37;;;;;;;6.53;2.58;;;20.20;99.90;;;;;;4937277;29;20027;-71
2023/09/20 10:04:10;;;;;;;4.70;2.30;;;20.20;99.90;;;;;;4954564;29;20023;-71
2023/09/20 10:07:02;;;;;;;4.05;1.95;;;20.20;99.90;;;;;;4937186;28;20038;-70
2023/09/20 10:09:35;;;;;;;6.32;2.35;;;20.20;99.90;;;;;;4929490;29;20539;-71
2023/09/20 10:12:02;;;;;;;4.90;2.55;;;20.20;99.90;;;;;;4954712;29;20103;-71
2023/09/20 10:14:28;;;;;;;5.97;2.50;;;20.20;99.90;;;;;;4954132;29;20098;-70
2023/09/20 10:16:54;;;;;;;6.85;2.47;;;20.20;99.90;;;;;;4937271;29;20027;-70
2023/09/20 10:19:20;;;;;;;5.78;2.40;;;20.30;99.90;;;;;;4954553;29;20031;-70
2023/09/20 10:22:10;;;;;;;5.47;2.20;;;20.30;99.90;;;;;;4937012;29;20033;-70
2023/09/20 10:24:47;;;;;;;6.10;2.25;;;20.40;99.90;;;;;;4953867;29;20397;-70
2023/09/20 10:27:17;;;;;;;9.25;2.40;;;20.50;99.90;;;;;;4954381;29;20027;-70
2023/09/20 10:29:58;;;;;;;4.25;2.08;;;20.50;99.90;;;;;;4953493;29;20023;-71
2023/09/20 10:32:31;;;;;;;7.40;2.67;;;20.50;99.90;;;;;;4954510;29;20101;-70
2023/09/20 10:35:18;;;;;;;6.10;2.30;;;20.50;99.90;;;;;;4953593;29;20486;-70
2023/09/20 10:37:58;;;;;;;3.90;2.20;;;20.50;99.90;;;;;;4954077;29;20031;-70
2023/09/20 10:40:44;;;;;;;3.83;1.90;;;20.50;99.90;;;;;;4942563;29;20494;-70
2023/09/20 10:43:09;;;;;;;5.32;2.20;;;20.50;99.90;;;;;;4968850;28;20027;-70
2023/09/20 10:45:39;;;;;;;3.28;1.65;;;20.60;99.90;;;;;;4953495;29;20051;-70
2023/09/20 10:48:12;;;;;;;4.03;2.05;;;20.60;99.90;;;;;;4954085;28;20449;-70
2023/09/20 10:50:54;;;;;;;4.65;1.88;;;20.70;99.90;;;;;;4952059;29;20031;-70
2023/09/20 10:53:22;;;;;;;6.10;2.17;;;20.80;99.90;;;;;;4954126;28;20386;-70
2023/09/20 10:55:49;;;;;;;5.40;1.88;;;20.90;99.90;;;;;;4953393;28;20071;-70
2023/09/20 10:58:18;;;;;;;4.03;1.75;;;21.00;99.90;;;;;;4954036;28;20027;-71
2023/09/20 11:00:44;;;;;;;5.65;2.38;;;21.10;99.90;;;;;;4952695;28;20023;-71
2023/09/20 11:03:11;;;;;;;4.75;1.75;;;21.10;99.90;;;;;;4953854;28;20055;-70
2023/09/20 11:05:38;;;;;;;4.60;1.98;;;21.10;99.90;;;;;;4952070;29;20015;-70
2023/09/20 11:08:11;;;;;;;4.05;1.80;;;21.20;99.90;;;;;;4953759;28;20021;-70
2023/09/20 11:10:43;;;;;;;4.38;1.90;;;21.20;99.90;;;;;;4967920;28;20035;-71
2023/09/20 11:13:11;;;;;;;5.20;1.70;;;21.30;99.90;;;;;;4968752;28;20019;-70
2023/09/20 11:15:43;;;;;;;3.70;1.65;;;21.30;99.90;;;;;;4953102;28;20023;-71
2023/09/20 11:18:14;;;;;;;3.10;1.40;;;21.40;99.90;;;;;;4952569;29;20394;-70
2023/09/20 11:20:41;;;;;;;;;;;21.50;99.90;;;;;;4953613;28;20074;-70
2023/09/20 11:23:09;;;;;;;4.25;1.83;;;21.60;99.90;;;;;;4953796;28;19906;-70
2023/09/20 11:25:35;;;;;;;4.55;1.65;;;21.70;99.90;;;;;;4953135;28;20019;-70
2023/09/20 11:28:00;;;;;;;4.13;2.00;;;21.80;99.90;;;;;;4953636;28;20042;-70
2023/09/20 11:30:27;;;;;;;6.00;1.70;;;21.80;99.90;;;;;;4953023;28;20027;-70
2023/09/20 11:32:56;;;;;;;2.75;1.33;;;21.90;99.90;;;;;;4953807;28;20019;-70
2023/09/20 11:35:35;;;;;;;5.03;1.67;;;21.90;99.90;;;;;;4953087;29;20056;-71
2023/09/20 11:38:08;;;;;;;4.22;1.60;;;21.90;99.90;;;;;;4953659;28;20030;-70
2023/09/20 11:40:36;;;;;;;3.03;1.30;;;21.90;99.90;;;;;;4952911;28;20055;-70
2023/09/20 11:43:06;;;;;;;4.00;1.65;;;21.90;99.90;;;;;;4953489;29;20122;-71
2023/09/20 11:45:34;;;;;;;4.18;1.63;;;21.80;99.90;;;;;;4953069;29;20027;-70
2023/09/20 11:48:08;;;;;;;2.38;1.40;;;21.80;99.90;;;;;;4953389;29;20067;-70
2023/09/20 11:50:34;;;;;;;3.25;1.83;;;21.80;99.90;;;;;;4952818;29;20086;-70
2023/09/20 11:53:00;;;;;;;3.63;1.40;;;21.80;99.90;;;;;;4936203;29;20026;-70
2023/09/20 11:55:26;;;;;;;1.85;1.25;;;21.80;99.90;;;;;;4952757;29;20023;-70
2023/09/20 11:57:55;;;;;;;3.17;1.42;;;21.90;99.90;;;;;;4953663;29;20034;-70
2023/09/20 12:00:26;;;;;;;4.00;1.65;;;22.00;99.90;;;;;;4935485;29;20023;-70
2023/09/20 12:02:53;;;;;;;4.22;1.70;;;22.00;99.90;;;;;;4953494;29;20101;-71
2023/09/20 12:05:19;;;;;;;6.57;1.50;;;22.00;99.90;;;;;;4952721;29;20037;-70
2023/09/20 12:07:59;;;;;;;5.07;1.30;;;22.00;99.90;;;;;;4953138;28;20023;-70
2023/09/20 12:10:26;;;;;;;;;;;22.00;99.90;;;;;;4953285;29;20026;-70
2023/09/20 12:12:52;;;;;;;4.95;1.60;;;22.00;99.90;;;;;;4953972;28;19906;-70
2023/09/20 12:15:21;;;;;;;3.40;1.20;;;22.00;99.90;;;;;;4956241;29;20509;-70
2023/09/20 12:17:47;;;;;;;4.55;1.45;;;22.00;99.90;;;;;;4956720;29;20512;-71
2023/09/20 12:20:15;;;;;;;4.50;1.33;;;22.10;99.90;;;;;;4956095;29;20036;-70
2023/09/20 12:22:43;;;;;;;3.65;1.30;;;22.20;99.90;;;;;;4956825;29;20398;-70
2023/09/20 12:25:11;;;;;;;2.47;1.50;;;22.30;99.90;;;;;;4956138;29;20030;-71
2023/09/20 12:27:37;;;;;;;2.05;1.15;;;22.40;99.90;;;;;;4956770;29;20440;-70
2023/09/20 12:30:04;;;;;;;2.83;1.50;;;22.40;99.90;;;;;;4955833;29;20106;-70
2023/09/20 12:32:31;;;;;;;4.00;1.23;;;22.30;99.90;;;;;;4956571;29;20019;-71
2023/09/20 12:34:57;;;;;;;3.97;1.60;;;22.30;99.90;;;;;;4938729;29;20027;-71
2023/09/20 12:37:23;;;;;;;4.63;1.30;;;22.30;99.90;;;;;;4956148;29;20466;-70
2023/09/20 12:39:50;;;;;;;4.72;1.33;;;22.30;99.90;;;;;;4955813;29;20071;-70
2023/09/20 12:42:16;;;;;;;2.83;1.38;;;22.30;99.90;;;;;;4956183;29;20524;-71
2023/09/20 12:44:43;;;;;;;3.30;1.60;;;22.30;99.90;;;;;;4955902;29;20058;-71
2023/09/20 12:47:09;;;;;;;5.70;1.65;;;22.20;99.90;;;;;;4956023;29;20024;-71
2023/09/20 12:49:37;;;;;;;3.92;1.63;;;22.10;99.90;;;;;;4955923;29;20027;-71
2023/09/20 12:52:04;;;;;;;5.22;1.70;;;22.20;99.90;;;;;;4955981;29;20078;-70
2023/09/20 12:54:32;;;;;;;5.60;1.40;;;22.30;99.90;;;;;;4956256;29;20023;-70
2023/09/20 12:56:58;;;;;;;4.40;1.50;;;22.30;99.90;;;;;;4955805;29;20126;-71
2023/09/20 12:59:27;;;;;;;1.85;1.10;;;22.30;99.90;;;;;;4956109;29;20561;-71
2023/09/20 13:01:57;;;;;;;3.40;1.63;;;22.40;99.90;;;;;;4938106;29;20031;-70
2023/09/20 13:04:24;;;;;;;;;;;22.40;99.90;;;;;;4956454;29;20031;-71
2023/09/20 13:06:50;;;;;;;3.40;1.42;;;22.40;99.90;;;;;;4955438;28;19917;-71
2023/09/20 13:09:16;;;;;;;4.45;1.52;;;22.40;99.90;;;;;;4955690;29;20027;-70
2023/09/20 13:11:46;;;;;;;3.92;1.40;;;22.40;99.90;;;;;;4955143;29;20106;-71
2023/09/20 13:14:12;;;;;;;5.50;1.70;;;22.40;99.90;;;;;;4955703;29;20026;-70
2023/09/20 13:16:41;;;;;;;4.97;1.60;;;22.40;99.90;;;;;;4955044;29;20020;-71
2023/09/20 13:19:09;;;;;;;4.10;1.50;;;22.40;99.90;;;;;;4955643;29;20490;-71
2023/09/20 13:21:35;;;;;;;2.65;1.48;;;22.40;99.90;;;;;;4955031;29;20046;-71
2023/09/20 13:24:01;;;;;;;5.25;1.50;;;22.50;99.90;;;;;;4955300;28;20378;-71
2023/09/20 13:26:27;;;;;;;5.13;1.83;;;22.50;99.90;;;;;;4954884;29;20038;-71
2023/09/20 13:28:53;;;;;;;4.40;1.65;;;22.60;99.90;;;;;;4938239;29;20019;-71
2023/09/20 13:31:19;;;;;;;5.00;1.90;;;22.70;99.90;;;;;;4954630;29;20031;-71